Time;durP1;ratioP1;P1;durP2;ratioP2;P2;SDS_P1;SDS_P2;PMS_P1;PMS_P2;Temp;Humidity;BMP_temperature;BMP_pressure;BME280_temperature;BME280_humidity;BME280_pressure;Samples;Min_cycle;Max_cycle;Signal;HPM_P1;HPM_P2
2022/12/25 00:01:43;;;;;;;11.85;5.50;;;;;;;8.36;100.00;100422.95;2846429;82;21046;-82
2022/12/25 00:05:44;;;;;;;7.87;4.90;;;;;;;8.08;100.00;100424.90;2845046;82;21106;-82
2022/12/25 00:09:45;;;;;;;7.15;4.67;;;;;;;7.92;100.00;100429.55;2882047;80;20967;-82
2022/12/25 00:13:48;;;;;;;14.78;4.95;;;;;;;7.80;100.00;100430.75;2854497;82;21047;-82
2022/12/25 00:17:49;;;;;;;9.88;4.78;;;;;;;7.68;100.00;100435.57;2814841;82;21030;-82
2022/12/25 00:21:50;;;;;;;5.30;4.10;;;;;;;7.63;100.00;100435.88;2835301;82;21553;-82
2022/12/25 00:25:52;;;;;;;8.58;5.25;;;;;;;7.64;100.00;100439.34;2837308;83;21106;-82
2022/12/25 00:29:54;;;;;;;7.55;4.55;;;;;;;7.74;100.00;100439.12;2821560;82;22228;-82
2022/12/25 00:33:55;;;;;;;6.55;4.03;;;;;;;7.92;100.00;100440.15;2798842;83;21117;-82
2022/12/25 00:37:56;;;;;;;5.10;3.90;;;;;;;8.08;100.00;100434.17;2837457;83;21635;-82
2022/12/25 00:46:17;;;;;;;6.80;3.20;;;;;;;8.11;100.00;100441.04;2831136;82;21371;-82
2022/12/25 00:50:19;;;;;;;8.38;4.25;;;;;;;8.15;100.00;100436.75;2831724;82;21041;-82
2022/12/25 00:54:20;;;;;;;7.42;3.58;;;;;;;8.09;100.00;100438.52;2826547;81;20995;-82
2022/12/25 00:58:24;;;;;;;6.83;4.87;;;;;;;8.01;100.00;100443.47;2829574;82;20998;-81
2022/12/25 01:02:25;;;;;;;6.55;4.15;;;;;;;7.89;100.00;100441.69;2846851;83;21075;-81
2022/12/25 01:06:27;;;;;;;9.38;4.78;;;;;;;7.78;100.00;100453.01;2848358;82;21501;-82
2022/12/25 01:10:28;;;;;;;6.60;3.60;;;;;;;7.67;100.00;100466.97;2825021;81;21083;-82
2022/12/25 01:14:30;;;;;;;6.05;4.33;;;;;;;7.67;100.00;100466.97;2827376;83;21017;-82
2022/12/25 01:18:31;;;;;;;12.60;5.30;;;;;;;7.62;100.00;100470.38;2854002;82;21074;-82
2022/12/25 01:22:32;;;;;;;5.20;3.52;;;;;;;7.44;100.00;100479.91;2840470;83;21061;-81
2022/12/25 01:26:34;;;;;;;13.30;4.22;;;;;;;7.36;100.00;100481.73;2839743;82;21035;-81
2022/12/25 01:30:35;;;;;;;6.03;3.37;;;;;;;7.20;100.00;100487.18;2845647;83;21080;-82
2022/12/25 01:34:36;;;;;;;6.55;4.40;;;;;;;6.93;100.00;100488.47;2843425;83;21517;-82
2022/12/25 01:38:38;;;;;;;9.18;3.87;;;;;;;6.76;100.00;100494.34;2851646;82;21074;-82
2022/12/25 01:42:39;;;;;;;8.43;4.15;;;;;;;6.69;100.00;100492.58;2848823;82;21106;-81
2022/12/25 01:46:42;;;;;;;9.40;4.92;;;;;;;6.66;100.00;100488.78;2851886;82;21588;-81
2022/12/25 01:50:47;;;;;;;7.65;4.62;;;;;;;6.59;100.00;100483.51;2802213;83;21066;-81
2022/12/25 01:54:55;;;;;;;11.48;4.80;;;;;;;6.55;100.00;100484.65;2873328;82;20952;-82
2022/12/25 01:58:57;;;;;;;9.23;4.33;;;;;;;6.56;100.00;100478.42;2856854;82;21033;-82
2022/12/25 02:02:59;;;;;;;9.65;4.55;;;;;;;6.73;100.00;100480.48;2892419;82;21046;-82
2022/12/25 02:07:01;;;;;;;10.08;4.53;;;;;;;6.84;100.00;100492.55;2829132;82;21015;-82
2022/12/25 02:11:03;;;;;;;9.10;3.30;;;;;;;6.91;100.00;100483.30;2847501;82;21004;-82
2022/12/25 02:15:17;;;;;;;6.92;4.22;;;;;;;6.98;100.00;100471.37;2813629;83;21353;-82
2022/12/25 02:19:44;;;;;;;7.53;4.53;;;;;;;7.04;100.00;100479.39;2851207;82;21121;-82
2022/12/25 02:24:27;;;;;;;12.05;5.40;;;;;;;7.12;100.00;100480.23;2851372;82;21100;-82
2022/12/25 02:28:39;;;;;;;7.70;4.40;;;;;;;7.21;100.00;100488.88;2851764;82;21003;-82
2022/12/25 02:32:52;;;;;;;9.40;5.50;;;;;;;7.25;100.00;100489.53;2811544;84;21091;-82
2022/12/25 02:37:23;;;;;;;12.75;4.42;;;;;;;6.99;100.00;100508.77;2820144;84;21020;-82
2022/12/25 02:41:27;;;;;;;8.35;4.47;;;;;;;6.79;100.00;100510.05;2852188;82;21070;-82
2022/12/25 03:08:03;;;;;;;15.55;6.60;;;;;;;6.63;100.00;100515.90;2875516;82;21051;-81
2022/12/25 03:12:10;;;;;;;8.35;4.75;;;;;;;6.72;100.00;100531.17;2890000;82;21019;-82
2022/12/25 03:31:10;;;;;;;16.67;5.78;;;;;;;6.66;97.61;100558.83;2829839;82;21062;-82
2022/12/25 03:33:30;;;;;;;;;;;;;;;6.52;97.12;100553.07;2820162;83;21147;-82
2022/12/25 04:39:09;;;;;;;9.15;5.25;;;;;;;6.05;100.00;100577.90;2794083;84;21615;-82
2022/12/25 04:43:10;;;;;;;10.60;5.05;;;;;;;6.02;100.00;100569.67;2837393;83;21056;-82
2022/12/25 04:47:12;;;;;;;9.13;5.47;;;;;;;6.04;100.00;100564.31;2789292;84;21019;-82
2022/12/25 04:51:21;;;;;;;8.40;4.12;;;;;;;6.15;100.00;100576.41;2836660;81;21072;-83
2022/12/25 04:55:22;;;;;;;14.98;4.95;;;;;;;6.22;100.00;100584.37;2819694;83;21014;-82
2022/12/25 04:59:24;;;;;;;7.90;4.33;;;;;;;6.28;100.00;100589.73;2836862;83;20995;-82
2022/12/25 05:03:25;;;;;;;10.32;4.83;;;;;;;6.27;100.00;100600.79;2832229;81;21014;-82
2022/12/25 05:07:26;;;;;;;7.92;4.78;;;;;;;6.23;100.00;100598.41;2847315;81;20984;-82
2022/12/25 05:11:28;;;;;;;10.63;4.95;;;;;;;6.22;100.00;100609.92;2842119;83;21098;-82
2022/12/25 05:15:29;;;;;;;9.15;3.77;;;;;;;6.22;100.00;100614.75;2842507;83;21026;-82
2022/12/25 05:19:30;;;;;;;8.38;4.40;;;;;;;6.25;100.00;100612.38;2844637;83;21078;-82
2022/12/25 05:23:32;;;;;;;12.20;5.12;;;;;;;6.23;100.00;100616.45;2843049;82;20999;-82
2022/12/25 05:27:33;;;;;;;20.82;11.22;;;;;;;6.27;100.00;100615.78;2851430;82;21132;-81
2022/12/25 05:31:35;;;;;;;15.58;9.25;;;;;;;6.34;100.00;100619.78;2842180;82;21008;-81
2022/12/25 05:35:38;;;;;;;11.10;8.10;;;;;;;6.48;100.00;100608.38;2853790;82;21025;-82
2022/12/25 05:39:39;;;;;;;16.87;7.50;;;;;;;6.62;100.00;100610.69;2777922;83;21050;-81
2022/12/25 05:43:40;;;;;;;12.88;7.03;;;;;;;6.72;100.00;100622.39;2848640;82;21573;-82
2022/12/25 05:47:42;;;;;;;10.35;6.20;;;;;;;6.80;100.00;100624.57;2838915;82;20995;-82
2022/12/25 05:51:43;;;;;;;10.60;5.78;;;;;;;6.84;100.00;100618.14;2800841;82;21015;-82
2022/12/25 05:55:44;;;;;;;7.72;4.67;;;;;;;6.91;100.00;100627.88;2765171;83;21045;-82
2022/12/25 05:59:46;;;;;;;10.93;6.40;;;;;;;6.92;100.00;100635.73;2850171;81;21057;-82
2022/12/25 06:03:47;;;;;;;6.78;4.60;;;;;;;6.95;100.00;100640.83;2861944;81;21137;-82
2022/12/25 06:07:49;;;;;;;9.80;5.65;;;;;;;7.03;100.00;100643.47;2845537;82;21043;-82
2022/12/25 06:11:50;;;;;;;9.20;5.72;;;;;;;7.03;100.00;100650.95;2776728;83;21039;-82
2022/12/25 06:15:51;;;;;;;13.38;5.08;;;;;;;6.99;100.00;100649.44;2796006;83;21063;-81
2022/12/25 06:19:53;;;;;;;9.35;5.72;;;;;;;6.98;100.00;100653.87;2843443;83;21074;-82
2022/12/25 06:23:55;;;;;;;7.70;5.22;;;;;;;6.91;99.20;100660.94;2828243;83;21558;-82
2022/12/25 06:27:56;;;;;;;8.70;5.17;;;;;;;6.74;98.44;100668.09;2837919;83;20992;-82
2022/12/25 06:31:57;;;;;;;6.58;4.55;;;;;;;6.50;98.82;100673.06;2837102;83;21035;-83
2022/12/25 06:36:00;;;;;;;7.78;5.15;;;;;;;6.34;99.31;100681.01;2807480;82;21031;-82
2022/12/25 06:40:02;;;;;;;10.88;6.17;;;;;;;6.25;99.95;100681.06;2824741;83;21071;-83
2022/12/25 06:44:04;;;;;;;12.90;6.25;;;;;;;6.20;100.00;100680.48;2798397;84;21055;-83
2022/12/25 06:48:05;;;;;;;20.88;7.00;;;;;;;6.21;100.00;100668.52;2802260;83;21178;-83
2022/12/25 06:52:06;;;;;;;21.80;7.25;;;;;;;6.17;100.00;100678.02;2776170;84;21133;-83
2022/12/25 06:56:16;;;;;;;19.12;8.80;;;;;;;6.12;100.00;100668.58;2728346;84;21001;-82
2022/12/25 07:00:15;;;;;;;9.08;6.00;;;;;;;6.10;100.00;100673.10;2777832;83;21041;-82
2022/12/25 07:04:27;;;;;;;10.65;7.65;;;;;;;6.06;100.00;100676.00;2798718;83;21079;-82
2022/12/25 07:08:28;;;;;;;10.50;6.97;;;;;;;6.04;100.00;100676.55;2846397;82;21067;-82
2022/12/25 07:12:29;;;;;;;5.95;5.15;;;;;;;6.01;100.00;100673.61;2831557;83;21018;-82
2022/12/25 07:16:31;;;;;;;13.45;6.33;;;;;;;6.07;100.00;100668.45;2838345;83;21033;-83
2022/12/25 07:20:32;;;;;;;11.75;7.58;;;;;;;6.13;100.00;100683.48;2827658;81;21584;-82
2022/12/25 07:24:34;;;;;;;23.67;11.88;;;;;;;6.23;100.00;100697.48;2850668;82;21051;-83
2022/12/25 07:28:35;;;;;;;18.87;11.50;;;;;;;6.27;100.00;100695.90;2817871;83;21075;-82
2022/12/25 07:32:36;;;;;;;20.65;9.63;;;;;;;6.25;100.00;100697.78;2817302;82;21064;-83
2022/12/25 07:36:38;;;;;;;14.50;8.35;;;;;;;6.28;100.00;100696.73;2847861;82;21026;-83
2022/12/25 07:40:39;;;;;;;19.32;9.55;;;;;;;6.32;100.00;100692.14;2845721;82;21034;-83
2022/12/25 07:44:40;;;;;;;16.40;8.65;;;;;;;6.40;100.00;100692.08;2870999;82;20983;-82
2022/12/25 07:48:42;;;;;;;11.65;7.65;;;;;;;6.53;100.00;100686.09;2837096;83;21081;-82
2022/12/25 07:52:43;;;;;;;18.00;7.08;;;;;;;6.58;100.00;100687.98;2804983;83;21104;-83
2022/12/25 07:56:45;;;;;;;15.25;9.03;;;;;;;6.65;100.00;100681.88;2834199;81;21038;-83
2022/12/25 08:00:46;;;;;;;22.10;12.55;;;;;;;6.56;99.91;100681.94;2846071;81;21085;-82
2022/12/25 08:04:47;;;;;;;15.30;9.15;;;;;;;6.38;100.00;100687.36;2895244;82;21354;-82
2022/12/25 08:08:49;;;;;;;14.75;8.65;;;;;;;6.28;99.63;100695.41;2830364;80;21701;-83
2022/12/25 08:12:50;;;;;;;14.43;8.90;;;;;;;6.03;100.00;100706.55;2814176;82;21045;-82
2022/12/25 08:16:52;;;;;;;13.32;8.95;;;;;;;5.82;100.00;100706.29;2848796;83;20943;-82
2022/12/25 08:20:53;;;;;;;9.83;6.78;;;;;;;5.75;100.00;100708.89;2852517;81;21006;-84
2022/12/25 08:24:54;;;;;;;16.57;10.25;;;;;;;5.67;100.00;100712.41;2843172;83;21074;-83
2022/12/25 08:28:56;;;;;;;22.30;14.73;;;;;;;5.70;100.00;100724.14;2834737;83;21006;-82
2022/12/25 08:32:57;;;;;;;39.18;20.17;;;;;;;5.81;100.00;100728.34;2801167;82;21018;-82
2022/12/25 08:36:58;;;;;;;36.25;19.92;;;;;;;6.01;100.00;100722.47;2833173;82;21076;-82
2022/12/25 08:41:00;;;;;;;26.40;15.78;;;;;;;6.21;100.00;100737.21;2768123;83;21035;-82
2022/12/25 08:45:01;;;;;;;20.55;11.85;;;;;;;6.39;100.00;100745.03;2842009;82;21608;-82
2022/12/25 08:49:02;;;;;;;11.88;8.23;;;;;;;6.49;100.00;100744.04;2823279;82;21030;-82
2022/12/25 08:53:04;;;;;;;11.85;7.58;;;;;;;6.55;100.00;100741.03;2841529;81;21479;-83
2022/12/25 08:57:05;;;;;;;9.08;6.22;;;;;;;6.55;100.00;100740.55;2851751;82;21030;-82
2022/12/25 09:01:07;;;;;;;11.55;6.35;;;;;;;6.70;100.00;100739.28;2851678;82;20964;-82
2022/12/25 09:05:09;;;;;;;13.88;6.58;;;;;;;6.83;100.00;100745.56;2842336;82;20967;-81
2022/12/25 09:09:10;;;;;;;12.63;6.08;;;;;;;7.05;100.00;100735.48;2794611;82;21367;-82
2022/12/25 09:13:11;;;;;;;10.30;6.53;;;;;;;7.29;100.00;100731.84;2841399;82;21539;-82
2022/12/25 09:17:13;;;;;;;18.17;9.98;;;;;;;7.50;100.00;100729.68;2832328;82;21006;-82
2022/12/25 09:21:15;;;;;;;16.60;13.55;;;;;;;7.75;100.00;100730.78;2838721;82;21533;-82
2022/12/25 09:25:17;;;;;;;16.12;10.78;;;;;;;7.98;100.00;100729.80;2842830;83;21058;-82
2022/12/25 09:29:18;;;;;;;20.00;11.40;;;;;;;8.12;100.00;100733.74;2833739;82;21009;-82
2022/12/25 09:33:21;;;;;;;20.15;10.05;;;;;;;8.23;100.00;100734.83;2889575;81;21031;-82
2022/12/25 09:37:22;;;;;;;12.28;9.45;;;;;;;8.44;100.00;100731.27;2888375;80;21465;-82
2022/12/25 09:41:41;;;;;;;39.30;23.38;;;;;;;8.58;98.37;100714.47;2889938;81;21052;-82
2022/12/25 09:45:44;;;;;;;22.27;12.98;;;;;;;8.81;99.81;100718.23;2885807;81;21149;-82
2022/12/25 09:50:25;;;;;;;15.13;12.43;;;;;;;8.86;98.91;100723.23;2887005;80;21003;-83
2022/12/25 09:54:47;;;;;;;21.82;16.90;;;;;;;8.98;98.40;100715.75;2886218;80;21567;-82
2022/12/25 09:58:48;;;;;;;27.90;17.48;;;;;;;9.13;98.53;100710.35;2881264;81;21079;-82
2022/12/25 10:03:04;;;;;;;19.82;12.33;;;;;;;9.35;98.45;100709.72;2883034;81;21033;-81
2022/12/25 10:07:26;;;;;;;18.10;10.25;;;;;;;9.50;96.73;100713.09;2859399;81;21054;-82
2022/12/25 10:11:50;;;;;;;14.20;10.08;;;;;;;9.48;93.81;100705.72;2872818;82;21555;-82
2022/12/25 10:16:21;;;;;;;12.43;7.55;;;;;;;9.62;94.37;100693.24;2866617;81;22133;-83
2022/12/25 10:20:51;;;;;;;16.93;10.03;;;;;;;9.74;93.72;100689.72;2830270;80;21043;-82
2022/12/25 10:24:56;;;;;;;12.23;8.68;;;;;;;9.89;93.71;100670.98;2736381;85;21000;-82
2022/12/25 10:29:03;;;;;;;26.70;10.53;;;;;;;9.93;91.25;100676.42;2737619;85;21094;-82
2022/12/25 10:33:04;;;;;;;25.48;14.50;;;;;;;9.93;92.08;100672.45;2753662;85;21702;-82
2022/12/25 10:37:06;;;;;;;19.67;12.15;;;;;;;9.99;92.96;100667.53;2686665;85;21392;-82
2022/12/25 10:41:33;;;;;;;15.20;9.25;;;;;;;10.14;94.55;100663.38;2737752;85;21678;-81
2022/12/25 10:45:47;;;;;;;30.55;18.35;;;;;;;10.14;94.01;100654.91;2697018;86;21072;-83
2022/12/25 10:53:52;;;;;;;15.00;9.40;;;;;;;10.11;93.27;100643.18;2656475;87;21273;-85
2022/12/25 10:57:54;;;;;;;13.18;9.50;;;;;;;10.21;92.82;100636.70;2709046;83;21036;-93
2022/12/25 11:02:00;;;;;;;15.25;8.05;;;;;;;10.14;92.41;100634.97;2777152;84;21527;-89
2022/12/25 11:06:01;;;;;;;;;;;;;;;10.10;92.49;100634.84;2854134;81;21040;-90
2022/12/25 11:10:09;;;;;;;14.43;9.73;;;;;;;10.19;92.73;100635.11;2790389;82;20085;-90
2022/12/25 11:14:15;;;;;;;15.32;9.93;;;;;;;10.20;92.88;100637.66;2711888;86;21449;-94
2022/12/25 11:18:31;;;;;;;19.70;11.15;;;;;;;10.25;93.02;100616.89;2751401;85;21111;-93
2022/12/25 11:22:36;;;;;;;14.87;10.20;;;;;;;10.26;93.27;100619.08;2713734;86;21050;-92
2022/12/25 11:26:50;;;;;;;18.10;10.63;;;;;;;10.40;92.65;100617.56;2763041;84;21115;-89
2022/12/25 11:31:17;;;;;;;23.83;9.08;;;;;;;;;;2728852;86;21031;-91
2022/12/25 11:35:19;;;;;;;17.65;10.58;;;;;;;10.35;91.31;100610.39;2745703;85;21082;-89
2022/12/25 11:39:33;;;;;;;15.45;7.67;;;;;;;10.32;91.65;100611.95;2741758;84;21067;-90
2022/12/25 11:43:49;;;;;;;17.52;10.63;;;;;;;10.32;92.30;100609.30;2780036;84;21027;-88
2022/12/25 11:48:01;;;;;;;18.80;12.60;;;;;;;10.33;92.38;100609.66;2767762;84;21035;-91
2022/12/25 11:52:05;;;;;;;26.52;14.13;;;;;;;10.29;92.59;100614.86;2829485;81;21122;-92
2022/12/25 11:56:17;;;;;;;26.35;16.48;;;;;;;10.21;93.07;100610.11;2849150;82;21014;-93
2022/12/25 12:00:19;;;;;;;23.90;17.70;;;;;;;10.27;93.18;100592.36;2849813;81;21079;-89
2022/12/25 12:04:37;;;;;;;21.70;14.68;;;;;;;10.37;93.90;100591.17;2851123;81;21018;-91
2022/12/25 12:08:39;;;;;;;21.40;12.98;;;;;;;10.40;93.64;100582.13;2846653;82;20988;-92
2022/12/25 12:13:07;;;;;;;21.68;14.25;;;;;;;10.46;93.91;100584.84;2841009;81;21902;-94
2022/12/25 12:17:12;;;;;;;56.73;29.07;;;;;;;10.49;94.00;100589.91;2854915;82;20974;-92
2022/12/25 12:21:28;;;;;;;41.92;21.62;;;;;;;10.62;94.82;100590.67;2847208;81;21144;-92
2022/12/25 12:25:30;;;;;;;;;;;;;;;10.67;94.35;100589.83;2861849;81;21078;-92
2022/12/25 12:29:43;;;;;;;25.30;13.75;;;;;;;10.78;94.70;100584.14;2855581;81;20097;-91
2022/12/25 12:33:55;;;;;;;19.70;11.68;;;;;;;10.85;92.82;100582.71;2837052;82;21034;-89
2022/12/25 12:38:10;;;;;;;24.60;12.47;;;;;;;10.77;92.28;100588.63;2838856;81;21045;-89
2022/12/25 12:42:19;;;;;;;14.83;9.75;;;;;;;10.77;93.38;100603.27;2853369;80;21086;-90
2022/12/25 12:46:29;;;;;;;16.20;10.18;;;;;;;10.75;93.23;100587.91;2855244;81;21042;-90
2022/12/25 12:50:41;;;;;;;15.18;10.40;;;;;;;10.74;92.66;100586.68;2842334;81;21061;-92
2022/12/25 12:54:59;;;;;;;16.73;10.90;;;;;;;10.71;92.91;100576.64;2844421;81;21061;-89
2022/12/25 12:59:00;;;;;;;15.48;10.10;;;;;;;10.68;93.85;100564.05;2837283;81;21046;-92
2022/12/25 13:03:32;;;;;;;15.15;10.25;;;;;;;10.61;93.62;100549.08;2850607;81;20946;-91
2022/12/25 13:07:59;;;;;;;18.42;13.13;;;;;;;10.64;93.10;100555.48;2856138;81;21055;-93
2022/12/25 13:12:10;;;;;;;14.05;10.82;;;;;;;10.39;93.56;100550.69;2788149;83;21666;-92
2022/12/25 13:16:40;;;;;;;17.23;12.05;;;;;;;10.32;94.39;100552.13;2787536;83;21034;-87
2022/12/25 13:20:55;;;;;;;22.07;13.32;;;;;;;10.12;95.67;100558.48;2785626;81;21008;-89
2022/12/25 13:25:00;;;;;;;18.27;13.55;;;;;;;10.04;95.92;100550.26;2763513;84;21579;-92
2022/12/25 13:29:02;;;;;;;18.80;11.80;;;;;;;9.87;97.02;100546.19;2766695;84;21011;-91
2022/12/25 13:33:03;;;;;;;18.17;10.90;;;;;;;9.75;99.21;100547.95;2766299;84;21056;-92
2022/12/25 13:37:26;;;;;;;32.00;12.80;;;;;;;9.76;99.65;100541.68;2722050;83;22277;-89
2022/12/25 13:46:01;;;;;;;16.60;9.35;;;;;;;9.58;100.00;100507.55;2751646;84;21045;-91
2022/12/25 13:50:32;;;;;;;18.30;11.45;;;;;;;9.45;100.00;100514.75;2749094;85;21127;-91
2022/12/25 13:54:34;;;;;;;15.60;12.18;;;;;;;9.26;100.00;100509.47;2751032;84;21046;-92
2022/12/25 13:58:36;;;;;;;18.50;14.13;;;;;;;9.26;100.00;100520.55;2758084;84;21002;-89
2022/12/25 14:02:38;;;;;;;26.95;16.87;;;;;;;9.20;100.00;100515.70;2785921;83;21003;-91
2022/12/25 14:06:40;;;;;;;18.48;11.93;;;;;;;9.28;100.00;100506.68;2776413;84;21098;-90
2022/12/25 14:10:47;;;;;;;23.02;12.23;;;;;;;9.23;100.00;100499.05;2781595;82;21081;-89
2022/12/25 14:14:51;;;;;;;15.48;10.40;;;;;;;9.22;100.00;100507.97;2756401;84;21090;-89
2022/12/25 14:19:01;;;;;;;17.23;12.33;;;;;;;9.07;100.00;100511.75;2780989;82;21054;-91
2022/12/25 14:23:04;;;;;;;25.32;15.32;;;;;;;9.06;100.00;100511.39;2753345;84;22015;-91
2022/12/25 14:27:22;;;;;;;27.22;17.00;;;;;;;9.04;100.00;100523.89;2800804;83;21032;-91
2022/12/25 14:31:27;;;;;;;17.62;11.45;;;;;;;9.01;100.00;100519.67;2793861;83;21607;-93
2022/12/25 14:35:29;;;;;;;17.77;9.28;;;;;;;8.86;100.00;100501.73;2799569;83;21851;-91
2022/12/25 14:39:37;;;;;;;18.82;9.68;;;;;;;8.78;100.00;100499.62;2734108;84;21047;-92
2022/12/25 14:43:39;;;;;;;15.03;11.70;;;;;;;8.78;100.00;100487.68;2802421;83;21570;-92
2022/12/25 14:47:54;;;;;;;15.83;11.08;;;;;;;8.81;100.00;100503.38;2776320;83;21436;-91
2022/12/25 14:51:55;;;;;;;18.32;12.25;;;;;;;8.94;100.00;100509.11;2757071;84;21081;-90
2022/12/25 14:55:57;;;;;;;57.75;30.37;;;;;;;9.02;100.00;100507.23;2731982;85;21050;-91
2022/12/25 15:00:04;;;;;;;236.00;102.40;;;;;;;9.14;100.00;100509.88;2716444;86;21036;-91
2022/12/25 15:04:11;;;;;;;594.10;316.77;;;;;;;8.92;100.00;100501.74;2746271;85;21596;-91
2022/12/25 15:08:18;;;;;;;200.30;92.55;;;;;;;8.81;100.00;100503.83;2692899;87;21023;-90
2022/12/25 15:12:19;;;;;;;104.40;57.38;;;;;;;8.78;100.00;100517.32;2699201;86;21046;-90
2022/12/25 15:16:31;;;;;;;46.55;23.22;;;;;;;8.63;100.00;100511.30;2728607;85;21126;-93
2022/12/25 15:20:34;;;;;;;22.60;14.33;;;;;;;8.69;100.00;100509.53;2765132;83;21562;-93
2022/12/25 15:24:36;;;;;;;25.43;14.78;;;;;;;8.87;100.00;100495.46;2688472;87;21094;-96
2022/12/25 15:28:39;;;;;;;68.75;44.23;;;;;;;8.96;100.00;100493.46;2694783;86;31024;-96
2022/12/25 15:32:41;;;;;;;39.30;27.48;;;;;;;8.82;100.00;100479.00;2689951;87;21033;-96
2022/12/25 15:36:42;;;;;;;26.05;14.45;;;;;;;8.82;100.00;100469.25;2689234;87;21027;-94
2022/12/25 15:40:44;;;;;;;18.00;13.38;;;;;;;8.67;100.00;100459.73;2781252;83;21023;-95
2022/12/25 15:44:46;;;;;;;19.90;14.53;;;;;;;8.67;100.00;100448.66;2780495;82;21053;-96
2022/12/25 15:48:47;;;;;;;28.45;19.23;;;;;;;8.75;100.00;100452.09;2734031;84;21023;-95
2022/12/25 15:52:49;;;;;;;27.55;21.00;;;;;;;8.66;100.00;100446.97;2818258;82;21028;-96
2022/12/25 15:56:55;;;;;;;25.40;18.23;;;;;;;8.68;100.00;100449.50;2854772;81;21008;-95
2022/12/25 16:00:56;;;;;;;20.88;11.85;;;;;;;8.63;100.00;100444.51;2780027;83;21539;-95
2022/12/25 16:04:58;;;;;;;26.02;13.58;;;;;;;8.71;100.00;100447.48;2773845;84;21538;-96
2022/12/25 16:09:00;;;;;;;23.90;16.87;;;;;;;8.72;100.00;100443.00;2777596;83;21098;-95
2022/12/25 16:13:01;;;;;;;17.90;15.13;;;;;;;8.65;100.00;100439.97;2848448;82;21107;-96
2022/12/25 16:17:04;;;;;;;21.12;15.13;;;;;;;8.67;100.00;100440.70;2765683;84;21113;-95
2022/12/25 16:21:11;;;;;;;25.00;14.85;;;;;;;8.65;100.00;100430.69;2833688;81;21113;-95
2022/12/25 16:25:17;;;;;;;25.40;14.83;;;;;;;8.68;100.00;100417.67;2847456;81;21039;-95
2022/12/25 16:29:18;;;;;;;23.77;13.35;;;;;;;8.67;100.00;100415.98;2828814;82;21039;-93
2022/12/25 16:33:20;;;;;;;22.65;15.93;;;;;;;8.62;100.00;100418.95;2849206;81;21021;-95
2022/12/25 16:37:21;;;;;;;27.30;16.62;;;;;;;8.54;100.00;100414.19;2856834;81;21087;-96
2022/12/25 16:41:24;;;;;;;29.15;16.82;;;;;;;8.60;100.00;100426.67;2856513;81;21050;-94
2022/12/25 16:45:26;;;;;;;30.52;17.48;;;;;;;8.59;100.00;100424.98;2854345;81;21113;-95
2022/12/25 16:49:27;;;;;;;24.65;16.27;;;;;;;8.64;100.00;100424.98;2843435;82;21099;-95
2022/12/25 16:53:29;;;;;;;22.13;13.98;;;;;;;8.60;100.00;100422.20;2839477;81;21035;-95
2022/12/25 16:57:32;;;;;;;22.82;14.55;;;;;;;8.58;100.00;100416.16;2842029;81;21606;-96
2022/12/25 17:01:34;;;;;;;29.35;14.90;;;;;;;8.48;100.00;100404.00;2800484;82;20967;-93
2022/12/25 17:05:36;;;;;;;22.32;12.78;;;;;;;8.36;100.00;100391.15;2799050;83;21071;-94
2022/12/25 17:09:38;;;;;;;25.90;13.60;;;;;;;8.29;100.00;100379.30;2842193;81;21067;-96
2022/12/25 17:13:40;;;;;;;29.57;15.05;;;;;;;8.18;100.00;100376.08;2856153;80;21085;-95
2022/12/25 17:17:42;;;;;;;24.55;18.55;;;;;;;8.18;100.00;100383.17;2835763;81;21654;-93
2022/12/25 17:21:44;;;;;;;20.70;14.68;;;;;;;8.25;100.00;100384.42;2847278;82;21079;-92
2022/12/25 17:25:45;;;;;;;24.65;12.15;;;;;;;8.21;100.00;100392.22;2853311;81;21033;-92
2022/12/25 17:29:47;;;;;;;22.82;13.15;;;;;;;8.29;100.00;100390.73;2802281;82;21043;-92
2022/12/25 17:33:49;;;;;;;23.18;12.90;;;;;;;8.37;100.00;100381.41;2847789;81;21085;-92
2022/12/25 17:37:51;;;;;;;23.65;14.50;;;;;;;8.49;100.00;100369.91;2794632;83;21122;-92
2022/12/25 17:41:53;;;;;;;45.73;21.90;;;;;;;8.61;100.00;100366.88;2771263;83;21048;-92
2022/12/25 17:45:54;;;;;;;19.92;12.23;;;;;;;8.66;100.00;100346.66;2771345;84;21730;-92
2022/12/25 17:49:56;;;;;;;60.08;28.42;;;;;;;8.68;100.00;100340.30;2773672;84;21002;-94
2022/12/25 17:54:03;;;;;;;83.45;36.68;;;;;;;8.66;100.00;100340.03;2668411;86;21131;-90
2022/12/25 17:58:05;;;;;;;45.28;26.25;;;;;;;8.62;100.00;100334.09;2720235;86;21109;-92
2022/12/25 18:02:10;;;;;;;25.20;12.78;;;;;;;8.37;100.00;100319.13;2727147;85;21076;-89
2022/12/25 18:06:16;;;;;;;38.45;18.17;;;;;;;8.21;100.00;100330.81;2656684;85;21068;-90
2022/12/25 18:10:17;;;;;;;22.55;12.85;;;;;;;8.15;100.00;100318.84;2702993;86;21069;-90
2022/12/25 18:14:19;;;;;;;26.20;13.50;;;;;;;8.07;100.00;100313.25;2719862;85;21572;-90
2022/12/25 18:18:21;;;;;;;23.32;16.15;;;;;;;8.08;100.00;100301.70;2709835;85;21692;-96
2022/12/25 18:22:22;;;;;;;25.75;13.85;;;;;;;8.05;100.00;100287.81;2730266;85;21143;-94
2022/12/25 18:26:24;;;;;;;39.58;22.80;;;;;;;8.03;100.00;100285.75;2719845;85;21094;-93
2022/12/25 18:30:26;;;;;;;48.52;29.45;;;;;;;8.15;100.00;100284.40;2696685;86;21080;-92
2022/12/25 18:34:28;;;;;;;47.93;30.23;;;;;;;8.23;100.00;100281.66;2726062;85;21087;-90
2022/12/25 18:38:30;;;;;;;28.70;16.42;;;;;;;8.24;100.00;100286.00;2728930;85;21107;-91
2022/12/25 18:42:41;;;;;;;18.80;13.13;;;;;;;8.23;100.00;100280.34;2714973;85;21591;-91
2022/12/25 18:46:43;;;;;;;20.82;11.60;;;;;;;8.20;100.00;100275.27;2720247;85;21085;-90
2022/12/25 18:50:44;;;;;;;23.92;15.28;;;;;;;8.13;100.00;100266.44;2644085;87;21083;-90
2022/12/25 18:54:46;;;;;;;29.60;14.33;;;;;;;8.15;100.00;100260.55;2738278;84;21116;-89
2022/12/25 18:58:47;;;;;;;19.65;13.13;;;;;;;8.27;100.00;100265.44;2771795;84;21026;-90
2022/12/25 19:02:49;;;;;;;22.27;12.53;;;;;;;8.27;100.00;100276.53;2744877;84;21116;-91
2022/12/25 19:06:51;;;;;;;13.48;9.68;;;;;;;8.40;100.00;100265.38;2825539;82;21648;-90
2022/12/25 19:10:52;;;;;;;19.55;11.90;;;;;;;8.55;100.00;100254.19;2805260;82;21085;-89
2022/12/25 19:14:54;;;;;;;28.30;16.87;;;;;;;8.63;100.00;100247.45;2798408;82;21291;-91
2022/12/25 19:18:56;;;;;;;36.50;20.17;;;;;;;8.67;100.00;100227.23;2771375;82;21059;-89
2022/12/25 19:22:58;;;;;;;33.45;18.95;;;;;;;8.77;100.00;100212.80;2803811;82;21061;-89
2022/12/25 19:27:02;;;;;;;20.72;11.53;;;;;;;8.82;100.00;100195.19;2845246;82;21062;-90
2022/12/25 19:31:06;;;;;;;20.08;11.18;;;;;;;8.88;100.00;100185.45;2843517;82;21433;-92
2022/12/25 19:35:07;;;;;;;20.65;12.53;;;;;;;8.88;100.00;100170.00;2849207;82;21065;-90
2022/12/25 19:39:10;;;;;;;19.25;12.03;;;;;;;8.89;100.00;100153.13;2749496;85;21519;-92
2022/12/25 19:43:12;;;;;;;13.08;9.00;;;;;;;8.93;100.00;100146.61;2786936;84;21596;-91
2022/12/25 19:47:13;;;;;;;20.57;10.63;;;;;;;8.96;100.00;100153.86;2782586;84;20991;-91
2022/12/25 19:51:21;;;;;;;19.30;11.08;;;;;;;8.96;100.00;100151.21;2780896;84;21071;-94
2022/12/25 19:55:23;;;;;;;15.55;10.18;;;;;;;8.99;100.00;100157.60;2759075;84;21051;-95
2022/12/25 19:59:24;;;;;;;16.95;10.45;;;;;;;8.85;100.00;100161.33;2730809;85;21103;-95
2022/12/25 20:03:26;;;;;;;18.70;10.03;;;;;;;8.88;100.00;100168.22;2757906;85;20977;-93
2022/12/25 20:07:29;;;;;;;14.10;9.33;;;;;;;8.85;100.00;100161.82;2761455;85;21547;-95
2022/12/25 20:11:32;;;;;;;16.20;9.18;;;;;;;8.80;100.00;100162.63;2757950;84;21456;-94
2022/12/25 20:15:34;;;;;;;16.05;9.13;;;;;;;8.79;100.00;100160.48;2756549;84;21566;-94
2022/12/25 20:19:35;;;;;;;16.80;9.00;;;;;;;8.81;100.00;100170.95;2759271;84;21067;-92
2022/12/25 20:23:37;;;;;;;14.55;7.62;;;;;;;8.76;100.00;100150.11;2759220;84;21060;-94
2022/12/25 20:27:38;;;;;;;14.73;9.23;;;;;;;8.70;100.00;100130.20;2759064;85;21043;-94
2022/12/25 20:31:39;;;;;;;13.78;8.75;;;;;;;8.79;100.00;100126.47;2739746;85;20989;-93
2022/12/25 20:35:46;;;;;;;18.92;9.05;;;;;;;8.86;100.00;100119.75;2760485;85;21599;-94